createdAt,value
2023-04-15T00:01:42.909Z,97799.41
2023-04-15T00:04:11.130Z,97811.44
2023-04-15T00:06:39.734Z,97810.31
2023-04-15T00:09:07.420Z,97815.44
2023-04-15T00:11:35.631Z,97813.00
2023-04-15T00:14:03.120Z,97818.00
2023-04-15T00:16:30.689Z,97815.03
2023-04-15T00:18:59.097Z,97816.47
2023-04-15T00:21:29.100Z,97818.84
2023-04-15T00:23:56.716Z,97828.19
2023-04-15T00:26:24.236Z,97824.56
2023-04-15T00:31:19.772Z,97819.84
2023-04-15T00:33:47.526Z,97824.72
2023-04-15T00:36:15.571Z,97824.94
2023-04-15T00:38:43.864Z,97808.63
2023-04-15T00:41:12.901Z,97796.94
2023-04-15T00:43:40.709Z,97796.53
2023-04-15T00:46:10.631Z,97798.84
2023-04-15T00:48:39.083Z,97801.38
2023-04-15T00:51:07.657Z,97806.78
2023-04-15T00:53:35.305Z,97806.16
2023-04-15T00:56:02.954Z,97805.50
2023-04-15T00:58:31.325Z,97805.56
2023-04-15T01:00:59.972Z,97799.91
2023-04-15T01:03:28.981Z,97806.44
2023-04-15T01:05:58.474Z,97804.06
2023-04-15T01:08:30.437Z,97811.81
2023-04-15T01:11:01.544Z,97800.16
2023-04-15T01:13:31.354Z,97801.44
2023-04-15T01:15:59.225Z,97799.31
2023-04-15T01:18:27.308Z,97803.91
2023-04-15T01:20:55.203Z,97803.03
2023-04-15T01:23:25.066Z,97800.44
2023-04-15T01:25:53.573Z,97792.91
2023-04-15T01:28:21.426Z,97807.78
2023-04-15T01:30:49.215Z,97800.59
2023-04-15T01:33:16.898Z,97798.91
2023-04-15T01:36:11.200Z,97805.72
2023-04-15T01:38:39.102Z,97802.47
2023-04-15T01:41:08.229Z,97810.41
2023-04-15T01:43:37.801Z,97811.59
2023-04-15T01:46:07.143Z,97820.84
2023-04-15T01:48:35.912Z,97819.38
2023-04-15T01:51:05.927Z,97819.63
2023-04-15T01:53:34.939Z,97823.78
2023-04-15T01:56:05.536Z,97821.69
2023-04-15T01:58:34.332Z,97814.81
2023-04-15T02:01:04.032Z,97822.59
2023-04-15T02:03:34.090Z,97816.53
2023-04-15T02:06:03.048Z,97820.28
2023-04-15T02:08:31.947Z,97823.38
2023-04-15T02:11:01.299Z,97823.69
2023-04-15T02:13:30.878Z,97811.94
2023-04-15T02:15:59.754Z,97811.53
2023-04-15T02:18:28.654Z,97821.59
2023-04-15T02:20:58.905Z,97825.75
2023-04-15T02:23:27.836Z,97821.31
2023-04-15T02:25:56.599Z,97828.59
2023-04-15T02:28:25.528Z,97820.28
2023-04-15T02:30:57.151Z,97823.19
2023-04-15T02:33:25.937Z,97825.06
2023-04-15T02:35:54.721Z,97821.59
2023-04-15T02:38:23.822Z,97822.66
2023-04-15T02:40:52.843Z,97816.44
2023-04-15T02:43:22.010Z,97819.56
2023-04-15T02:45:52.354Z,97818.22
2023-04-15T02:48:22.728Z,97822.84
2023-04-15T02:50:51.991Z,97817.88
2023-04-15T02:53:21.341Z,97821.06
2023-04-15T02:55:50.107Z,97821.63
2023-04-15T02:58:18.873Z,97813.78
2023-04-15T03:00:47.877Z,97817.53
2023-04-15T03:03:16.849Z,97814.81
2023-04-15T03:05:45.800Z,97825.25
2023-04-15T03:08:15.070Z,97816.94
2023-04-15T03:10:43.896Z,97817.59
2023-04-15T03:13:13.133Z,97817.63
2023-04-15T03:15:42.583Z,97820.13
2023-04-15T03:18:12.487Z,97818.50
2023-04-15T03:20:42.840Z,97811.38
2023-04-15T03:23:12.112Z,97809.97
2023-04-15T03:25:41.081Z,97812.28
2023-04-15T03:28:10.520Z,97815.09
2023-04-15T03:30:39.394Z,97817.25
2023-04-15T03:33:08.720Z,97819.84
2023-04-15T03:35:38.408Z,97815.38
2023-04-15T03:38:07.141Z,97819.44
2023-04-15T03:40:36.249Z,97824.88
2023-04-15T03:43:05.057Z,97820.47
2023-04-15T03:45:33.789Z,97805.31
2023-04-15T03:48:16.493Z,97815.66
2023-04-15T03:50:46.330Z,97807.00
2023-04-15T03:53:16.061Z,97804.06
2023-04-15T03:55:45.030Z,97808.22
2023-04-15T03:58:13.995Z,97808.81
2023-04-15T04:00:43.201Z,97802.25
2023-04-15T04:03:12.295Z,97804.63
2023-04-15T04:05:41.655Z,97805.63
2023-04-15T04:08:11.240Z,97800.50
2023-04-15T04:10:40.356Z,97806.94
2023-04-15T04:13:09.137Z,97808.59
2023-04-15T04:15:37.967Z,97809.75
2023-04-15T04:18:06.815Z,97813.88
2023-04-15T04:20:35.703Z,97809.66
2023-04-15T04:23:04.711Z,97811.16
2023-04-15T04:25:34.630Z,97814.84
2023-04-15T04:28:03.835Z,97814.72
2023-04-15T04:30:32.879Z,97815.34
2023-04-15T04:33:01.785Z,97808.72
2023-04-15T04:35:30.869Z,97828.25
2023-04-15T04:37:59.627Z,97821.56
2023-04-15T04:40:28.578Z,97812.22
2023-04-15T04:42:59.015Z,97814.78
2023-04-15T04:45:27.913Z,97818.34
2023-04-15T04:47:57.167Z,97826.59
2023-04-15T04:50:26.095Z,97824.97
2023-04-15T04:52:54.852Z,97825.22
2023-04-15T04:55:23.791Z,97826.19
2023-04-15T04:57:52.740Z,97817.56
2023-04-15T05:00:21.614Z,97823.66
2023-04-15T05:02:50.603Z,97824.97
2023-04-15T05:05:19.480Z,97822.59
2023-04-15T05:07:50.312Z,97821.16
2023-04-15T05:10:19.182Z,97827.41
2023-04-15T05:12:48.148Z,97831.34
2023-04-15T05:15:16.908Z,97829.28
2023-04-15T05:17:45.782Z,97829.09
2023-04-15T05:20:14.612Z,97826.53
2023-04-15T05:22:43.446Z,97832.31
2023-04-15T05:25:12.480Z,97826.03
2023-04-15T05:27:41.384Z,97829.66
2023-04-15T05:30:12.162Z,97830.16
2023-04-15T05:32:42.307Z,97825.44
2023-04-15T05:35:11.120Z,97832.50
2023-04-15T05:37:39.890Z,97834.06
2023-04-15T05:40:10.569Z,97835.38
2023-04-15T05:42:39.384Z,97838.38
2023-04-15T05:45:09.383Z,97840.72
2023-04-15T05:47:38.490Z,97851.06
2023-04-15T05:50:08.407Z,97849.41
2023-04-15T05:52:37.400Z,97857.59
2023-04-15T05:55:06.930Z,97851.97
2023-04-15T05:57:35.650Z,97859.41
2023-04-15T06:00:07.804Z,97864.13
2023-04-15T06:02:40.537Z,97854.59
2023-04-15T06:05:10.824Z,97858.50
2023-04-15T06:07:39.878Z,97870.41
2023-04-15T06:10:09.258Z,97872.41
2023-04-15T06:12:38.752Z,97864.78
2023-04-15T06:15:09.989Z,97870.22
2023-04-15T06:17:38.841Z,97865.56
2023-04-15T06:20:08.938Z,97880.38
2023-04-15T06:22:41.345Z,97875.34
2023-04-15T06:25:10.956Z,97871.81
2023-04-15T06:27:40.720Z,97877.94
2023-04-15T06:30:10.189Z,97879.06
2023-04-15T06:32:39.122Z,97880.28
2023-04-15T06:35:08.255Z,97875.19
2023-04-15T06:37:37.036Z,97882.47
2023-04-15T06:40:06.560Z,97878.50
2023-04-15T06:42:36.771Z,97879.00
2023-04-15T06:45:06.789Z,97884.09
2023-04-15T06:47:35.575Z,97880.69
2023-04-15T06:50:04.923Z,97885.97
2023-04-15T06:52:33.828Z,97878.56
2023-04-15T06:55:03.797Z,97880.38
2023-04-15T06:57:34.904Z,97881.06
2023-04-15T07:00:05.823Z,97874.84
2023-04-15T07:02:34.949Z,97887.81
2023-04-15T07:05:05.444Z,97882.59
2023-04-15T07:07:34.204Z,97893.72
2023-04-15T07:10:03.053Z,97890.94
2023-04-15T07:12:32.375Z,97892.78
2023-04-15T07:15:01.546Z,97890.59
2023-04-15T07:17:31.497Z,97902.16
2023-04-15T07:20:00.455Z,97892.66
2023-04-15T07:22:29.568Z,97889.28
2023-04-15T07:24:58.639Z,97896.34
2023-04-15T07:27:27.714Z,97895.47
2023-04-15T07:29:56.576Z,97888.97
2023-04-15T07:32:26.087Z,97896.13
2023-04-15T07:34:54.870Z,97891.63
2023-04-15T07:37:24.129Z,97898.72
2023-04-15T07:39:53.560Z,97890.63
2023-04-15T07:42:22.740Z,97897.56
2023-04-15T07:44:52.120Z,97898.94
2023-04-15T07:47:21.312Z,97900.63
2023-04-15T07:49:51.554Z,97899.63
2023-04-15T07:52:20.369Z,97908.22
2023-04-15T07:54:49.275Z,97901.00
2023-04-15T07:57:18.444Z,97906.16
2023-04-15T07:59:47.178Z,97910.25
2023-04-15T08:02:16.216Z,97904.50
2023-04-15T08:04:45.417Z,97915.72
2023-04-15T08:07:14.426Z,97916.66
2023-04-15T08:09:43.568Z,97918.53
2023-04-15T08:12:13.542Z,97913.25
2023-04-15T08:14:42.557Z,97914.25
2023-04-15T08:17:11.615Z,97916.28
2023-04-15T08:19:40.858Z,97919.63
2023-04-15T08:22:18.004Z,97921.06
2023-04-15T08:24:47.650Z,97929.47
2023-04-15T08:27:16.512Z,97932.50
2023-04-15T08:29:45.799Z,97927.53
2023-04-15T08:32:15.042Z,97933.03
2023-04-15T08:34:43.801Z,97933.72
2023-04-15T08:37:12.846Z,97927.88
2023-04-15T08:39:41.643Z,97933.25
2023-04-15T08:42:14.349Z,97935.31
2023-04-15T08:44:44.633Z,97935.91
2023-04-15T08:47:14.980Z,97932.19
2023-04-15T08:49:44.627Z,97931.38
2023-04-15T08:52:13.530Z,97928.59
2023-04-15T08:54:43.121Z,97932.25
2023-04-15T08:57:12.712Z,97932.72
2023-04-15T08:59:42.880Z,97939.06
2023-04-15T09:02:12.187Z,97935.84
2023-04-15T09:04:41.431Z,97941.28
2023-04-15T09:07:10.213Z,97938.03
2023-04-15T09:09:48.745Z,97937.13
2023-04-15T09:12:17.591Z,97945.50
2023-04-15T09:14:47.337Z,97943.66
2023-04-15T09:17:21.708Z,97938.75
2023-04-15T09:20:05.390Z,97950.97
2023-04-15T09:22:34.265Z,97944.94
2023-04-15T09:25:03.893Z,97945.66
2023-04-15T09:27:36.595Z,97939.09
2023-04-15T09:30:08.978Z,97946.84
2023-04-15T09:32:57.845Z,97947.16
2023-04-15T09:35:30.639Z,97939.97
2023-04-15T09:38:08.029Z,97945.63
2023-04-15T09:40:43.256Z,97946.59
2023-04-15T09:43:17.353Z,97936.47
2023-04-15T09:45:54.267Z,97946.78
2023-04-15T09:48:28.125Z,97942.25
2023-04-15T09:51:01.427Z,97954.59
2023-04-15T09:53:34.316Z,97947.25
2023-04-15T09:56:04.398Z,97953.19
2023-04-15T09:58:35.746Z,97955.34
2023-04-15T10:01:06.222Z,97953.47
2023-04-15T10:03:39.393Z,97950.56
2023-04-15T10:06:09.236Z,97969.00
2023-04-15T10:08:38.886Z,97965.09
2023-04-15T10:11:08.096Z,97963.19
2023-04-15T10:13:38.933Z,97966.03
2023-04-15T10:16:20.826Z,97957.78
2023-04-15T10:18:56.111Z,97967.94
2023-04-15T10:21:25.151Z,97966.16
2023-04-15T10:23:54.194Z,97968.22
2023-04-15T10:26:23.644Z,97966.97
2023-04-15T10:28:53.586Z,97964.72
2023-04-15T10:31:23.695Z,97969.38
2023-04-15T10:33:53.485Z,97971.34
2023-04-15T10:36:25.405Z,97975.91
2023-04-15T10:38:54.234Z,97994.47
2023-04-15T10:41:31.385Z,97982.75
2023-04-15T10:44:02.767Z,97977.56
2023-04-15T10:46:45.785Z,97979.63
2023-04-15T10:49:17.274Z,97987.75
2023-04-15T10:51:51.139Z,97991.78
2023-04-15T10:54:25.848Z,97996.47
2023-04-15T10:57:01.448Z,97988.00
2023-04-15T10:59:31.117Z,97992.88
2023-04-15T11:02:06.939Z,97989.16
2023-04-15T11:04:54.607Z,97992.38
2023-04-15T11:07:39.832Z,98007.75
2023-04-15T11:10:19.938Z,97990.50
2023-04-15T11:12:52.486Z,98004.25
2023-04-15T11:15:41.695Z,97992.84
2023-04-15T11:18:13.056Z,97986.88
2023-04-15T11:20:45.206Z,97987.56
2023-04-15T11:23:16.107Z,97988.69
2023-04-15T11:25:46.027Z,97998.66
2023-04-15T11:28:14.901Z,97983.63
2023-04-15T11:30:43.811Z,97984.13
2023-04-15T11:33:13.884Z,97990.59
2023-04-15T11:35:43.076Z,97992.25
2023-04-15T11:38:14.039Z,97993.56
2023-04-15T11:40:46.966Z,97984.75
2023-04-15T11:43:20.908Z,97980.47
2023-04-15T11:45:52.979Z,97988.50
2023-04-15T11:48:26.678Z,97998.00
2023-04-15T11:51:00.828Z,98002.44
2023-04-15T11:53:48.850Z,98004.31
2023-04-15T11:56:24.460Z,98001.88
2023-04-15T11:58:53.861Z,98004.59
2023-04-15T12:01:21.676Z,98007.28
2023-04-15T12:03:50.361Z,97997.19
2023-04-15T12:06:20.446Z,98003.31
2023-04-15T12:08:59.069Z,98002.78
2023-04-15T12:11:31.769Z,98003.72
2023-04-15T12:14:05.340Z,98003.28
2023-04-15T12:16:46.671Z,98008.19
2023-04-15T12:19:22.701Z,98000.22
2023-04-15T12:21:51.143Z,98016.88
2023-04-15T12:24:23.108Z,98009.75
2023-04-15T12:26:58.083Z,98011.31
2023-04-15T12:29:28.312Z,98007.38
2023-04-15T12:32:05.184Z,98008.94
2023-04-15T12:34:40.713Z,98015.50
2023-04-15T12:37:10.762Z,98006.72
2023-04-15T12:39:40.119Z,98008.59
2023-04-15T12:42:09.062Z,98018.38
2023-04-15T12:44:37.946Z,98005.78
2023-04-15T12:47:05.630Z,98017.84
2023-04-15T12:49:33.857Z,98020.50
2023-04-15T12:52:02.997Z,98016.16
2023-04-15T12:54:31.578Z,98017.72
2023-04-15T12:56:59.666Z,98015.63
2023-04-15T12:59:27.391Z,98017.00
2023-04-15T13:01:55.147Z,98022.16
2023-04-15T13:04:23.078Z,98025.38
2023-04-15T13:06:51.402Z,98020.91
2023-04-15T13:09:19.053Z,98021.28
2023-04-15T13:11:46.751Z,98026.81
2023-04-15T13:14:14.294Z,98017.13
2023-04-15T13:16:41.852Z,98016.41
2023-04-15T13:19:09.609Z,98029.41
2023-04-15T13:21:37.191Z,98023.59
2023-04-15T13:24:07.267Z,98026.91
2023-04-15T13:26:35.051Z,98032.44
2023-04-15T13:29:02.612Z,98033.19
2023-04-15T13:31:30.607Z,98038.47
2023-04-15T13:33:58.320Z,98040.03
2023-04-15T13:36:26.751Z,98037.03
2023-04-15T13:38:54.525Z,98040.16
2023-04-15T13:41:22.145Z,98038.19
2023-04-15T13:43:49.756Z,98045.84
2023-04-15T13:46:17.581Z,98049.25
2023-04-15T13:48:46.084Z,98052.44
2023-04-15T13:51:16.454Z,98040.22
2023-04-15T13:53:44.438Z,98043.50
2023-04-15T13:56:12.062Z,98048.19
2023-04-15T13:58:42.482Z,98059.13
2023-04-15T14:01:10.145Z,98063.41
2023-04-15T14:03:38.312Z,98061.34
2023-04-15T14:06:06.604Z,98062.66
2023-04-15T14:08:34.549Z,98069.72
2023-04-15T14:11:02.268Z,98055.06
2023-04-15T14:13:30.023Z,98050.56
2023-04-15T14:15:57.759Z,98046.84
2023-04-15T14:18:25.830Z,98054.75
2023-04-15T14:20:53.700Z,98059.94
2023-04-15T14:23:21.612Z,98071.13
2023-04-15T14:25:50.861Z,98073.81
2023-04-15T14:28:18.524Z,98069.53
2023-04-15T14:30:47.252Z,98068.09
2023-04-15T14:33:15.050Z,98077.63
2023-04-15T14:35:42.800Z,98076.06
2023-04-15T14:38:11.525Z,98076.88
2023-04-15T14:40:41.149Z,98072.88
2023-04-15T14:43:08.978Z,98075.16
2023-04-15T14:45:39.503Z,98078.84
2023-04-15T14:48:10.185Z,98076.13
2023-04-15T14:50:37.958Z,98077.41
2023-04-15T14:53:05.745Z,98081.13
2023-04-15T14:55:33.503Z,98083.16
2023-04-15T14:58:02.412Z,98084.44
2023-04-15T15:00:30.539Z,98086.38
2023-04-15T15:02:58.831Z,98085.03
2023-04-15T15:05:26.632Z,98095.16
2023-04-15T15:07:55.730Z,98084.31
2023-04-15T15:10:32.759Z,98088.34
2023-04-15T15:13:11.475Z,98087.50
2023-04-15T15:15:39.359Z,98100.41
2023-04-15T15:18:07.291Z,98103.19
2023-04-15T15:20:36.027Z,98121.25
2023-04-15T15:23:03.664Z,98117.97
2023-04-15T15:25:31.232Z,98134.22
2023-04-15T15:27:59.342Z,98130.09
2023-04-15T15:30:28.262Z,98116.66
2023-04-15T15:32:56.029Z,98125.41
2023-04-15T15:35:23.724Z,98119.09
2023-04-15T15:37:51.499Z,98130.25
2023-04-15T15:40:21.850Z,98128.06
2023-04-15T15:42:50.900Z,98134.13
2023-04-15T15:45:18.631Z,98146.03
2023-04-15T15:47:46.292Z,98144.22
2023-04-15T15:50:16.737Z,98152.47
2023-04-15T15:52:44.547Z,98151.59
2023-04-15T15:55:12.078Z,98157.34
2023-04-15T15:57:39.629Z,98170.75
2023-04-15T16:00:11.924Z,98161.91
2023-04-15T16:03:04.968Z,98161.25
2023-04-15T16:05:28.450Z,98160.81
2023-04-15T16:07:57.604Z,98166.09
2023-04-15T16:10:25.393Z,98164.38
2023-04-15T16:12:53.044Z,98162.06
2023-04-15T16:15:22.663Z,98153.44
2023-04-15T16:17:50.528Z,98154.34
2023-04-15T16:20:18.172Z,98158.13
2023-04-15T16:22:45.941Z,98161.03
2023-04-15T16:25:14.175Z,98164.03
2023-04-15T16:27:54.685Z,98170.97
2023-04-15T16:30:26.963Z,98166.06
2023-04-15T16:32:54.822Z,98168.16
2023-04-15T16:35:22.474Z,98175.91
2023-04-15T16:37:52.800Z,98182.34
2023-04-15T16:40:23.803Z,98185.66
2023-04-15T16:42:51.995Z,98186.56
2023-04-15T16:45:22.551Z,98188.66
2023-04-15T16:47:50.884Z,98188.31
2023-04-15T16:50:19.215Z,98198.75
2023-04-15T16:52:46.886Z,98196.34
2023-04-15T16:55:14.410Z,98202.25
2023-04-15T16:58:01.172Z,98200.34
2023-04-15T17:00:30.160Z,98209.53
2023-04-15T17:02:58.206Z,98207.00
2023-04-15T17:05:27.646Z,98222.38
2023-04-15T17:07:55.552Z,98209.63
2023-04-15T17:10:23.916Z,98223.28
2023-04-15T17:12:52.203Z,98221.59
2023-04-15T17:15:20.341Z,98222.19
2023-04-15T17:17:52.638Z,98228.56
2023-04-15T17:20:20.612Z,98236.59
2023-04-15T17:22:49.080Z,98226.47
2023-04-15T17:25:17.067Z,98247.50
2023-04-15T17:27:50.044Z,98247.16
2023-04-15T17:30:23.282Z,98243.63
2023-04-15T17:33:59.047Z,98245.59
2023-04-15T17:36:18.589Z,98247.72
2023-04-15T17:39:06.664Z,98257.84
2023-04-15T17:41:57.680Z,98258.31
2023-04-15T17:44:46.048Z,98259.91
2023-04-15T17:47:33.995Z,98264.63
2023-04-15T17:50:21.769Z,98273.81
2023-04-15T17:53:09.532Z,98273.72
2023-04-15T17:55:58.040Z,98266.25
2023-04-15T17:58:45.867Z,98266.34
2023-04-15T18:01:33.903Z,98285.41
2023-04-15T18:04:24.061Z,98282.50
2023-04-15T18:07:14.797Z,98287.00
2023-04-15T18:10:02.413Z,98284.19
2023-04-15T18:12:50.454Z,98294.16
2023-04-15T18:15:40.859Z,98305.59
2023-04-15T18:18:29.950Z,98297.84
2023-04-15T18:21:01.722Z,98313.06
2023-04-15T18:23:29.448Z,98308.63
2023-04-15T18:25:58.121Z,98310.88
2023-04-15T18:28:26.247Z,98316.16
2023-04-15T18:30:54.258Z,98322.75
2023-04-15T18:33:23.245Z,98320.72
2023-04-15T18:35:51.145Z,98331.16
2023-04-15T18:38:19.185Z,98337.16
2023-04-15T18:40:47.547Z,98333.78
2023-04-15T18:43:22.032Z,98335.91
2023-04-15T18:45:52.108Z,98345.88
2023-04-15T18:48:20.913Z,98347.06
2023-04-15T18:50:49.045Z,98352.44
2023-04-15T18:53:17.714Z,98356.66
2023-04-15T18:55:45.636Z,98358.41
2023-04-15T18:58:13.364Z,98363.88
2023-04-15T19:00:43.751Z,98376.91
2023-04-15T19:03:11.873Z,98367.38
2023-04-15T19:05:40.444Z,98376.50
2023-04-15T19:08:08.288Z,98381.97
2023-04-15T19:10:36.794Z,98381.00
2023-04-15T19:13:04.674Z,98385.50
2023-04-15T19:15:59.641Z,98396.97
2023-04-15T19:18:44.582Z,98394.41
2023-04-15T19:21:13.107Z,98397.53
2023-04-15T19:23:43.168Z,98404.22
2023-04-15T19:26:11.954Z,98401.78
2023-04-15T19:28:39.818Z,98402.56
2023-04-15T19:31:08.129Z,98402.31
2023-04-15T19:33:35.948Z,98396.47
2023-04-15T19:36:05.840Z,98405.91
2023-04-15T19:38:37.728Z,98408.09
2023-04-15T19:41:05.806Z,98407.41
2023-04-15T19:43:33.639Z,98408.81
2023-04-15T19:46:01.608Z,98409.00
2023-04-15T19:48:34.858Z,98409.72
2023-04-15T19:51:02.687Z,98413.19
2023-04-15T19:53:30.745Z,98419.44
2023-04-15T19:55:58.583Z,98425.09
2023-04-15T19:58:26.695Z,98421.53
2023-04-15T20:00:54.695Z,98432.00
2023-04-15T20:03:22.803Z,98429.03
2023-04-15T20:05:50.793Z,98445.44
2023-04-15T20:08:19.258Z,98450.03
2023-04-15T20:10:52.635Z,98448.13
2023-04-15T20:13:21.060Z,98448.97
2023-04-15T20:15:48.658Z,98441.94
2023-04-15T20:18:16.320Z,98442.34
2023-04-15T20:20:45.282Z,98440.09
2023-04-15T20:23:13.065Z,98440.50
2023-04-15T20:25:41.832Z,98439.78
2023-04-15T20:28:09.751Z,98443.13
2023-04-15T20:30:40.493Z,98443.88
2023-04-15T20:33:08.963Z,98450.91
2023-04-15T20:35:36.638Z,98447.56
2023-04-15T20:38:04.737Z,98447.56
2023-04-15T20:40:33.743Z,98447.97
2023-04-15T20:43:01.861Z,98456.31
2023-04-15T20:45:30.888Z,98450.19
2023-04-15T20:47:58.871Z,98447.63
2023-04-15T20:50:26.647Z,98451.50
2023-04-15T20:52:54.204Z,98462.38
2023-04-15T20:55:21.794Z,98454.56
2023-04-15T20:57:49.336Z,98461.84
2023-04-15T21:00:17.321Z,98460.72
2023-04-15T21:02:45.050Z,98458.22
2023-04-15T21:05:12.682Z,98469.25
2023-04-15T21:07:41.062Z,98479.34
2023-04-15T21:10:09.372Z,98480.97
2023-04-15T21:12:40.723Z,98475.56
2023-04-15T21:15:09.089Z,98476.94
2023-04-15T21:17:36.872Z,98478.34
2023-04-15T21:20:05.068Z,98481.34
2023-04-15T21:22:33.171Z,98494.31
2023-04-15T21:25:00.789Z,98491.44
2023-04-15T21:27:28.402Z,98493.69
2023-04-15T21:29:56.024Z,98495.25
2023-04-15T21:32:23.725Z,98504.84
2023-04-15T21:34:51.293Z,98493.50
2023-04-15T21:37:18.881Z,98488.81
2023-04-15T21:39:46.452Z,98500.34
2023-04-15T21:42:14.127Z,98497.13
2023-04-15T21:44:41.665Z,98502.53
2023-04-15T21:47:12.084Z,98501.91
2023-04-15T21:49:39.766Z,98498.09
2023-04-15T21:52:07.351Z,98504.19
2023-04-15T21:54:36.847Z,98506.13
2023-04-15T21:57:04.541Z,98510.69
2023-04-15T21:59:33.185Z,98504.31
2023-04-15T22:02:00.817Z,98503.63
2023-04-15T22:04:28.555Z,98502.81
2023-04-15T22:07:00.200Z,98505.47
2023-04-15T22:09:28.082Z,98504.00
2023-04-15T22:11:56.046Z,98509.63
2023-04-15T22:14:23.558Z,98511.69
2023-04-15T22:16:51.283Z,98513.75
2023-04-15T22:19:19.013Z,98516.69
2023-04-15T22:21:46.748Z,98522.38
2023-04-15T22:24:31.770Z,98517.81
2023-04-15T22:27:02.750Z,98519.53
2023-04-15T22:29:30.563Z,98522.78
2023-04-15T22:31:58.571Z,98519.25
2023-04-15T22:34:26.164Z,98517.84
2023-04-15T22:36:53.754Z,98517.63
2023-04-15T22:39:21.331Z,98527.06
2023-04-15T22:41:49.744Z,98524.66
2023-04-15T22:44:17.340Z,98529.91
2023-04-15T22:46:44.895Z,98527.63
2023-04-15T22:49:12.489Z,98520.06
2023-04-15T22:51:40.364Z,98519.16
2023-04-15T22:54:07.949Z,98523.72
2023-04-15T22:56:35.712Z,98524.53
2023-04-15T22:59:03.451Z,98535.56
2023-04-15T23:01:32.351Z,98534.19
2023-04-15T23:04:05.550Z,98538.75
2023-04-15T23:06:37.545Z,98532.84
2023-04-15T23:09:05.243Z,98526.94
2023-04-15T23:11:32.980Z,98526.69
2023-04-15T23:14:00.832Z,98518.06
2023-04-15T23:16:28.727Z,98529.34
2023-04-15T23:18:56.428Z,98536.22
2023-04-15T23:21:26.071Z,98531.00
2023-04-15T23:23:54.118Z,98530.97
2023-04-15T23:26:21.712Z,98524.69
2023-04-15T23:28:49.686Z,98532.56
2023-04-15T23:31:17.242Z,98529.91
2023-04-15T23:33:44.986Z,98533.84
2023-04-15T23:36:12.512Z,98527.69
2023-04-15T23:38:40.179Z,98532.47
2023-04-15T23:41:09.164Z,98536.69
2023-04-15T23:43:36.743Z,98529.19
2023-04-15T23:46:04.305Z,98532.44
2023-04-15T23:48:32.173Z,98537.44
2023-04-15T23:51:01.610Z,98538.41
2023-04-15T23:53:32.325Z,98538.06
2023-04-15T23:55:59.893Z,98542.34
2023-04-15T23:58:27.602Z,98544.78
